sensor_id;sensor_type;location;lat;lon;timestamp;P1;durP1;ratioP1;P2;durP2;ratioP2
31770;SDS011;18343;50.152;8.182;2023-02-08T00:00:02;24.67;;;12.38;;
31770;SDS011;18343;50.152;8.182;2023-02-08T00:02:47;29.27;;;12.55;;
31770;SDS011;18343;50.152;8.182;2023-02-08T00:05:36;26.70;;;12.52;;
31770;SDS011;18343;50.152;8.182;2023-02-08T00:08:21;26.52;;;13.52;;
31770;SDS011;18343;50.152;8.182;2023-02-08T00:11:06;26.10;;;12.95;;
31770;SDS011;18343;50.152;8.182;2023-02-08T00:13:52;30.63;;;13.10;;
31770;SDS011;18343;50.152;8.182;2023-02-08T00:16:36;31.05;;;13.80;;
31770;SDS011;18343;50.152;8.182;2023-02-08T00:19:21;24.83;;;11.40;;
31770;SDS011;18343;50.152;8.182;2023-02-08T00:22:06;20.50;;;10.05;;
31770;SDS011;18343;50.152;8.182;2023-02-08T00:24:51;21.10;;;10.00;;
31770;SDS011;18343;50.152;8.182;2023-02-08T00:27:36;21.42;;;10.10;;
31770;SDS011;18343;50.152;8.182;2023-02-08T00:30:22;21.90;;;10.05;;
31770;SDS011;18343;50.152;8.182;2023-02-08T00:33:06;18.83;;;9.63;;
31770;SDS011;18343;50.152;8.182;2023-02-08T00:35:56;20.88;;;10.10;;
31770;SDS011;18343;50.152;8.182;2023-02-08T00:38:43;34.85;;;14.18;;
31770;SDS011;18343;50.152;8.182;2023-02-08T00:41:28;31.08;;;12.55;;
31770;SDS011;18343;50.152;8.182;2023-02-08T00:44:12;19.98;;;10.15;;
31770;SDS011;18343;50.152;8.182;2023-02-08T00:46:57;19.63;;;9.05;;
31770;SDS011;18343;50.152;8.182;2023-02-08T00:49:41;13.93;;;7.97;;
31770;SDS011;18343;50.152;8.182;2023-02-08T00:52:26;25.13;;;11.02;;
31770;SDS011;18343;50.152;8.182;2023-02-08T00:55:12;18.30;;;8.63;;
31770;SDS011;18343;50.152;8.182;2023-02-08T00:57:57;16.75;;;8.35;;
31770;SDS011;18343;50.152;8.182;2023-02-08T01:00:42;15.40;;;8.68;;
31770;SDS011;18343;50.152;8.182;2023-02-08T01:03:27;21.00;;;10.25;;
31770;SDS011;18343;50.152;8.182;2023-02-08T01:06:13;23.13;;;11.43;;
31770;SDS011;18343;50.152;8.182;2023-02-08T01:09:00;21.85;;;10.88;;
31770;SDS011;18343;50.152;8.182;2023-02-08T01:11:46;21.85;;;10.70;;
31770;SDS011;18343;50.152;8.182;2023-02-08T01:14:30;23.35;;;10.15;;
31770;SDS011;18343;50.152;8.182;2023-02-08T01:17:15;23.33;;;11.27;;
31770;SDS011;18343;50.152;8.182;2023-02-08T01:19:59;22.63;;;11.15;;
31770;SDS011;18343;50.152;8.182;2023-02-08T01:22:43;26.33;;;11.70;;
31770;SDS011;18343;50.152;8.182;2023-02-08T01:25:28;26.08;;;12.35;;
31770;SDS011;18343;50.152;8.182;2023-02-08T01:28:15;33.00;;;14.43;;
31770;SDS011;18343;50.152;8.182;2023-02-08T01:31:03;39.83;;;16.48;;
31770;SDS011;18343;50.152;8.182;2023-02-08T01:33:49;33.25;;;13.82;;
31770;SDS011;18343;50.152;8.182;2023-02-08T01:36:34;32.08;;;13.57;;
31770;SDS011;18343;50.152;8.182;2023-02-08T01:39:20;32.92;;;14.10;;
31770;SDS011;18343;50.152;8.182;2023-02-08T01:42:04;31.60;;;12.25;;
31770;SDS011;18343;50.152;8.182;2023-02-08T01:48:07;15.20;;;7.45;;
31770;SDS011;18343;50.152;8.182;2023-02-08T01:50:59;20.20;;;9.60;;
31770;SDS011;18343;50.152;8.182;2023-02-08T01:53:50;16.20;;;7.85;;
31770;SDS011;18343;50.152;8.182;2023-02-08T01:56:38;15.43;;;6.95;;
31770;SDS011;18343;50.152;8.182;2023-02-08T01:59:29;15.15;;;7.25;;
31770;SDS011;18343;50.152;8.182;2023-02-08T02:02:21;12.43;;;7.18;;
31770;SDS011;18343;50.152;8.182;2023-02-08T02:05:07;15.70;;;7.38;;
31770;SDS011;18343;50.152;8.182;2023-02-08T02:07:53;13.73;;;6.82;;
31770;SDS011;18343;50.152;8.182;2023-02-08T02:10:40;16.33;;;6.80;;
31770;SDS011;18343;50.152;8.182;2023-02-08T02:13:26;11.82;;;6.00;;
31770;SDS011;18343;50.152;8.182;2023-02-08T02:16:11;14.90;;;6.57;;
31770;SDS011;18343;50.152;8.182;2023-02-08T02:18:57;10.95;;;6.20;;
31770;SDS011;18343;50.152;8.182;2023-02-08T02:21:45;16.27;;;9.05;;
31770;SDS011;18343;50.152;8.182;2023-02-08T02:24:54;17.38;;;8.38;;
31770;SDS011;18343;50.152;8.182;2023-02-08T02:31:59;19.17;;;7.40;;
31770;SDS011;18343;50.152;8.182;2023-02-08T02:35:00;15.07;;;6.93;;
31770;SDS011;18343;50.152;8.182;2023-02-08T02:37:52;13.82;;;6.80;;
31770;SDS011;18343;50.152;8.182;2023-02-08T02:40:49;17.35;;;7.68;;
31770;SDS011;18343;50.152;8.182;2023-02-08T02:43:44;12.82;;;6.88;;
31770;SDS011;18343;50.152;8.182;2023-02-08T02:46:36;13.60;;;6.75;;
31770;SDS011;18343;50.152;8.182;2023-02-08T02:49:28;11.93;;;6.47;;
31770;SDS011;18343;50.152;8.182;2023-02-08T02:52:19;12.55;;;6.43;;
31770;SDS011;18343;50.152;8.182;2023-02-08T02:55:12;14.32;;;6.80;;
31770;SDS011;18343;50.152;8.182;2023-02-08T02:58:02;13.82;;;6.40;;
31770;SDS011;18343;50.152;8.182;2023-02-08T03:00:52;12.52;;;6.60;;
31770;SDS011;18343;50.152;8.182;2023-02-08T03:03:38;13.35;;;6.30;;
31770;SDS011;18343;50.152;8.182;2023-02-08T03:06:28;14.43;;;7.13;;
31770;SDS011;18343;50.152;8.182;2023-02-08T03:09:30;14.77;;;6.65;;
31770;SDS011;18343;50.152;8.182;2023-02-08T03:12:43;11.15;;;6.53;;
31770;SDS011;18343;50.152;8.182;2023-02-08T03:15:44;17.40;;;7.22;;
31770;SDS011;18343;50.152;8.182;2023-02-08T03:18:44;11.75;;;6.55;;
31770;SDS011;18343;50.152;8.182;2023-02-08T03:21:46;14.38;;;6.68;;
31770;SDS011;18343;50.152;8.182;2023-02-08T03:24:39;16.13;;;8.45;;
31770;SDS011;18343;50.152;8.182;2023-02-08T03:30:20;13.68;;;6.88;;
31770;SDS011;18343;50.152;8.182;2023-02-08T03:33:13;14.63;;;7.15;;
31770;SDS011;18343;50.152;8.182;2023-02-08T03:36:05;14.10;;;7.05;;
31770;SDS011;18343;50.152;8.182;2023-02-08T03:38:58;16.15;;;7.57;;
31770;SDS011;18343;50.152;8.182;2023-02-08T03:41:50;14.27;;;7.40;;
31770;SDS011;18343;50.152;8.182;2023-02-08T03:44:41;16.38;;;7.28;;
31770;SDS011;18343;50.152;8.182;2023-02-08T03:47:33;22.27;;;8.57;;
31770;SDS011;18343;50.152;8.182;2023-02-08T03:50:21;19.00;;;7.95;;
31770;SDS011;18343;50.152;8.182;2023-02-08T03:53:06;18.92;;;8.38;;
31770;SDS011;18343;50.152;8.182;2023-02-08T03:55:56;25.13;;;9.73;;
31770;SDS011;18343;50.152;8.182;2023-02-08T03:58:47;23.77;;;9.60;;
31770;SDS011;18343;50.152;8.182;2023-02-08T04:01:40;37.45;;;15.48;;
31770;SDS011;18343;50.152;8.182;2023-02-08T04:04:30;33.40;;;13.70;;
31770;SDS011;18343;50.152;8.182;2023-02-08T04:07:19;35.08;;;13.10;;
31770;SDS011;18343;50.152;8.182;2023-02-08T04:10:04;22.90;;;9.50;;
31770;SDS011;18343;50.152;8.182;2023-02-08T04:12:51;20.25;;;8.25;;
31770;SDS011;18343;50.152;8.182;2023-02-08T04:15:35;20.63;;;8.27;;
31770;SDS011;18343;50.152;8.182;2023-02-08T04:18:20;17.15;;;8.00;;
31770;SDS011;18343;50.152;8.182;2023-02-08T04:21:05;18.50;;;8.55;;
31770;SDS011;18343;50.152;8.182;2023-02-08T04:23:49;23.92;;;10.30;;
31770;SDS011;18343;50.152;8.182;2023-02-08T04:26:34;19.70;;;8.30;;
31770;SDS011;18343;50.152;8.182;2023-02-08T04:29:20;17.92;;;8.10;;
31770;SDS011;18343;50.152;8.182;2023-02-08T04:32:05;19.83;;;8.98;;
31770;SDS011;18343;50.152;8.182;2023-02-08T04:34:50;20.13;;;8.75;;
31770;SDS011;18343;50.152;8.182;2023-02-08T04:37:34;18.52;;;8.20;;
31770;SDS011;18343;50.152;8.182;2023-02-08T04:40:19;15.70;;;8.27;;
31770;SDS011;18343;50.152;8.182;2023-02-08T04:43:04;13.77;;;7.15;;
31770;SDS011;18343;50.152;8.182;2023-02-08T04:45:49;18.73;;;7.43;;
31770;SDS011;18343;50.152;8.182;2023-02-08T04:48:34;17.73;;;7.88;;
31770;SDS011;18343;50.152;8.182;2023-02-08T04:51:19;16.00;;;6.93;;
31770;SDS011;18343;50.152;8.182;2023-02-08T04:54:03;15.13;;;6.60;;
31770;SDS011;18343;50.152;8.182;2023-02-08T04:56:48;24.60;;;8.10;;
31770;SDS011;18343;50.152;8.182;2023-02-08T04:59:33;16.35;;;8.35;;
31770;SDS011;18343;50.152;8.182;2023-02-08T05:02:19;15.18;;;8.07;;
31770;SDS011;18343;50.152;8.182;2023-02-08T05:05:04;18.63;;;8.02;;
31770;SDS011;18343;50.152;8.182;2023-02-08T05:07:49;15.85;;;7.93;;
31770;SDS011;18343;50.152;8.182;2023-02-08T05:10:33;17.67;;;8.95;;
31770;SDS011;18343;50.152;8.182;2023-02-08T05:13:18;17.17;;;8.20;;
31770;SDS011;18343;50.152;8.182;2023-02-08T05:16:02;17.73;;;9.48;;
31770;SDS011;18343;50.152;8.182;2023-02-08T05:18:49;20.15;;;7.82;;
31770;SDS011;18343;50.152;8.182;2023-02-08T05:21:33;18.67;;;7.85;;
31770;SDS011;18343;50.152;8.182;2023-02-08T05:24:18;16.38;;;7.90;;
31770;SDS011;18343;50.152;8.182;2023-02-08T05:27:02;18.40;;;7.63;;
31770;SDS011;18343;50.152;8.182;2023-02-08T05:29:47;21.42;;;8.80;;
31770;SDS011;18343;50.152;8.182;2023-02-08T05:32:32;19.05;;;8.48;;
31770;SDS011;18343;50.152;8.182;2023-02-08T05:35:18;16.58;;;8.25;;
31770;SDS011;18343;50.152;8.182;2023-02-08T05:38:03;18.05;;;7.90;;
31770;SDS011;18343;50.152;8.182;2023-02-08T05:40:48;22.48;;;7.53;;
31770;SDS011;18343;50.152;8.182;2023-02-08T05:43:33;15.73;;;7.30;;
31770;SDS011;18343;50.152;8.182;2023-02-08T05:46:17;16.95;;;7.82;;
31770;SDS011;18343;50.152;8.182;2023-02-08T05:49:02;18.38;;;7.50;;
31770;SDS011;18343;50.152;8.182;2023-02-08T05:51:48;13.88;;;7.20;;
31770;SDS011;18343;50.152;8.182;2023-02-08T05:54:33;15.10;;;8.35;;
31770;SDS011;18343;50.152;8.182;2023-02-08T05:57:17;16.20;;;7.57;;
31770;SDS011;18343;50.152;8.182;2023-02-08T06:00:02;16.20;;;7.43;;
31770;SDS011;18343;50.152;8.182;2023-02-08T06:02:48;16.58;;;7.93;;
31770;SDS011;18343;50.152;8.182;2023-02-08T06:05:33;18.40;;;8.25;;
31770;SDS011;18343;50.152;8.182;2023-02-08T06:08:20;17.70;;;8.48;;
31770;SDS011;18343;50.152;8.182;2023-02-08T06:11:05;17.85;;;7.63;;
31770;SDS011;18343;50.152;8.182;2023-02-08T06:13:49;15.07;;;7.60;;
31770;SDS011;18343;50.152;8.182;2023-02-08T06:16:34;16.52;;;7.55;;
31770;SDS011;18343;50.152;8.182;2023-02-08T06:19:18;16.02;;;8.20;;
31770;SDS011;18343;50.152;8.182;2023-02-08T06:22:03;14.90;;;7.60;;
31770;SDS011;18343;50.152;8.182;2023-02-08T06:24:49;20.48;;;8.85;;
31770;SDS011;18343;50.152;8.182;2023-02-08T06:27:33;21.65;;;8.93;;
31770;SDS011;18343;50.152;8.182;2023-02-08T06:30:18;16.05;;;8.10;;
31770;SDS011;18343;50.152;8.182;2023-02-08T06:33:03;18.98;;;9.32;;
31770;SDS011;18343;50.152;8.182;2023-02-08T06:35:49;18.52;;;8.75;;
31770;SDS011;18343;50.152;8.182;2023-02-08T06:38:35;16.70;;;8.43;;
31770;SDS011;18343;50.152;8.182;2023-02-08T06:41:21;17.17;;;7.88;;
31770;SDS011;18343;50.152;8.182;2023-02-08T06:44:06;18.40;;;7.90;;
31770;SDS011;18343;50.152;8.182;2023-02-08T06:46:50;19.70;;;9.27;;
31770;SDS011;18343;50.152;8.182;2023-02-08T06:49:34;17.00;;;8.70;;
31770;SDS011;18343;50.152;8.182;2023-02-08T06:52:19;17.27;;;8.60;;
31770;SDS011;18343;50.152;8.182;2023-02-08T06:55:05;15.85;;;9.00;;
31770;SDS011;18343;50.152;8.182;2023-02-08T06:57:53;17.67;;;8.88;;
31770;SDS011;18343;50.152;8.182;2023-02-08T07:00:38;22.42;;;10.38;;
31770;SDS011;18343;50.152;8.182;2023-02-08T07:03:22;23.50;;;9.90;;
31770;SDS011;18343;50.152;8.182;2023-02-08T07:06:10;18.02;;;8.80;;
31770;SDS011;18343;50.152;8.182;2023-02-08T07:08:56;21.23;;;9.35;;
31770;SDS011;18343;50.152;8.182;2023-02-08T07:11:40;17.80;;;8.38;;
31770;SDS011;18343;50.152;8.182;2023-02-08T07:14:27;17.92;;;9.25;;
31770;SDS011;18343;50.152;8.182;2023-02-08T07:17:12;20.20;;;9.52;;
31770;SDS011;18343;50.152;8.182;2023-02-08T07:19:56;20.08;;;8.80;;
31770;SDS011;18343;50.152;8.182;2023-02-08T07:22:41;18.10;;;8.10;;
31770;SDS011;18343;50.152;8.182;2023-02-08T07:25:25;20.20;;;8.88;;
31770;SDS011;18343;50.152;8.182;2023-02-08T07:28:10;20.75;;;8.35;;
31770;SDS011;18343;50.152;8.182;2023-02-08T07:30:56;22.10;;;9.43;;
31770;SDS011;18343;50.152;8.182;2023-02-08T07:33:41;17.15;;;9.05;;
31770;SDS011;18343;50.152;8.182;2023-02-08T07:36:26;17.92;;;8.30;;
31770;SDS011;18343;50.152;8.182;2023-02-08T07:39:11;19.60;;;8.93;;
31770;SDS011;18343;50.152;8.182;2023-02-08T07:41:55;27.52;;;9.90;;
31770;SDS011;18343;50.152;8.182;2023-02-08T07:44:39;24.17;;;10.85;;
31770;SDS011;18343;50.152;8.182;2023-02-08T07:47:25;20.20;;;11.02;;
31770;SDS011;18343;50.152;8.182;2023-02-08T07:50:10;23.52;;;11.15;;
31770;SDS011;18343;50.152;8.182;2023-02-08T07:52:54;34.83;;;16.10;;
31770;SDS011;18343;50.152;8.182;2023-02-08T07:55:38;27.63;;;13.23;;
31770;SDS011;18343;50.152;8.182;2023-02-08T07:58:23;29.20;;;14.57;;
31770;SDS011;18343;50.152;8.182;2023-02-08T08:01:08;32.83;;;14.73;;
31770;SDS011;18343;50.152;8.182;2023-02-08T08:03:54;27.48;;;12.60;;
31770;SDS011;18343;50.152;8.182;2023-02-08T08:06:39;34.78;;;14.05;;
31770;SDS011;18343;50.152;8.182;2023-02-08T08:09:24;29.20;;;14.07;;
31770;SDS011;18343;50.152;8.182;2023-02-08T08:12:08;26.63;;;12.57;;
31770;SDS011;18343;50.152;8.182;2023-02-08T08:14:53;28.45;;;13.40;;
31770;SDS011;18343;50.152;8.182;2023-02-08T08:17:37;30.33;;;13.38;;
31770;SDS011;18343;50.152;8.182;2023-02-08T08:20:23;31.23;;;12.80;;
31770;SDS011;18343;50.152;8.182;2023-02-08T08:23:12;28.65;;;11.75;;
31770;SDS011;18343;50.152;8.182;2023-02-08T08:25:56;27.05;;;10.95;;
31770;SDS011;18343;50.152;8.182;2023-02-08T08:28:42;23.13;;;12.15;;
31770;SDS011;18343;50.152;8.182;2023-02-08T08:31:27;28.83;;;13.45;;
31770;SDS011;18343;50.152;8.182;2023-02-08T08:34:11;30.73;;;13.98;;
31770;SDS011;18343;50.152;8.182;2023-02-08T08:36:58;26.25;;;12.32;;
31770;SDS011;18343;50.152;8.182;2023-02-08T08:39:44;28.38;;;14.27;;
31770;SDS011;18343;50.152;8.182;2023-02-08T08:42:29;28.13;;;13.40;;
31770;SDS011;18343;50.152;8.182;2023-02-08T08:45:13;30.58;;;13.52;;
31770;SDS011;18343;50.152;8.182;2023-02-08T08:47:58;30.90;;;13.80;;
31770;SDS011;18343;50.152;8.182;2023-02-08T08:50:43;24.85;;;12.57;;
31770;SDS011;18343;50.152;8.182;2023-02-08T08:53:28;26.67;;;11.10;;
31770;SDS011;18343;50.152;8.182;2023-02-08T08:56:13;20.75;;;9.63;;
31770;SDS011;18343;50.152;8.182;2023-02-08T08:58:58;24.80;;;11.57;;
31770;SDS011;18343;50.152;8.182;2023-02-08T09:01:42;21.88;;;10.45;;
31770;SDS011;18343;50.152;8.182;2023-02-08T09:04:26;18.85;;;9.40;;
31770;SDS011;18343;50.152;8.182;2023-02-08T09:07:11;16.95;;;9.43;;
31770;SDS011;18343;50.152;8.182;2023-02-08T09:09:57;20.35;;;9.63;;
31770;SDS011;18343;50.152;8.182;2023-02-08T09:12:41;17.95;;;8.77;;
31770;SDS011;18343;50.152;8.182;2023-02-08T09:15:26;20.42;;;9.48;;
31770;SDS011;18343;50.152;8.182;2023-02-08T09:18:10;20.88;;;9.73;;
31770;SDS011;18343;50.152;8.182;2023-02-08T09:20:55;22.77;;;9.40;;
31770;SDS011;18343;50.152;8.182;2023-02-08T09:23:39;20.92;;;10.30;;
31770;SDS011;18343;50.152;8.182;2023-02-08T09:26:26;20.08;;;9.50;;
31770;SDS011;18343;50.152;8.182;2023-02-08T09:29:11;21.60;;;10.63;;
31770;SDS011;18343;50.152;8.182;2023-02-08T09:31:56;21.70;;;10.73;;
31770;SDS011;18343;50.152;8.182;2023-02-08T09:34:41;20.23;;;9.93;;
31770;SDS011;18343;50.152;8.182;2023-02-08T09:37:25;18.42;;;9.93;;
31770;SDS011;18343;50.152;8.182;2023-02-08T09:40:12;18.20;;;9.77;;
31770;SDS011;18343;50.152;8.182;2023-02-08T09:43:08;19.15;;;9.63;;
31770;SDS011;18343;50.152;8.182;2023-02-08T09:45:59;21.67;;;9.43;;
31770;SDS011;18343;50.152;8.182;2023-02-08T09:48:49;15.80;;;7.63;;
31770;SDS011;18343;50.152;8.182;2023-02-08T09:51:39;16.05;;;8.32;;
31770;SDS011;18343;50.152;8.182;2023-02-08T09:54:29;17.42;;;8.73;;
31770;SDS011;18343;50.152;8.182;2023-02-08T09:57:21;16.05;;;8.25;;
31770;SDS011;18343;50.152;8.182;2023-02-08T10:00:13;17.33;;;8.20;;
31770;SDS011;18343;50.152;8.182;2023-02-08T10:03:03;19.50;;;9.45;;
31770;SDS011;18343;50.152;8.182;2023-02-08T10:05:51;17.17;;;7.82;;
31770;SDS011;18343;50.152;8.182;2023-02-08T10:08:36;14.05;;;7.97;;
31770;SDS011;18343;50.152;8.182;2023-02-08T10:11:28;18.00;;;6.95;;
31770;SDS011;18343;50.152;8.182;2023-02-08T10:14:37;15.35;;;7.55;;
31770;SDS011;18343;50.152;8.182;2023-02-08T10:17:48;14.82;;;7.43;;
31770;SDS011;18343;50.152;8.182;2023-02-08T10:20:59;17.70;;;8.40;;
31770;SDS011;18343;50.152;8.182;2023-02-08T10:24:18;13.50;;;7.35;;
31770;SDS011;18343;50.152;8.182;2023-02-08T10:27:35;13.20;;;7.32;;
31770;SDS011;18343;50.152;8.182;2023-02-08T10:30:31;13.02;;;6.85;;
31770;SDS011;18343;50.152;8.182;2023-02-08T10:33:29;15.90;;;7.72;;
31770;SDS011;18343;50.152;8.182;2023-02-08T10:36:20;15.82;;;7.03;;
31770;SDS011;18343;50.152;8.182;2023-02-08T10:39:13;18.08;;;7.22;;
31770;SDS011;18343;50.152;8.182;2023-02-08T10:42:01;13.98;;;6.82;;
31770;SDS011;18343;50.152;8.182;2023-02-08T10:44:52;18.13;;;7.80;;
31770;SDS011;18343;50.152;8.182;2023-02-08T10:47:47;12.95;;;6.47;;
31770;SDS011;18343;50.152;8.182;2023-02-08T10:50:36;13.98;;;6.95;;
31770;SDS011;18343;50.152;8.182;2023-02-08T10:53:23;14.50;;;6.75;;
31770;SDS011;18343;50.152;8.182;2023-02-08T10:56:10;13.63;;;7.50;;
31770;SDS011;18343;50.152;8.182;2023-02-08T10:59:20;16.48;;;7.10;;
31770;SDS011;18343;50.152;8.182;2023-02-08T11:02:13;11.75;;;6.82;;
31770;SDS011;18343;50.152;8.182;2023-02-08T11:05:06;14.75;;;6.60;;
31770;SDS011;18343;50.152;8.182;2023-02-08T11:08:04;14.45;;;7.47;;
31770;SDS011;18343;50.152;8.182;2023-02-08T11:10:57;11.32;;;7.38;;
31770;SDS011;18343;50.152;8.182;2023-02-08T11:13:47;14.80;;;6.90;;
31770;SDS011;18343;50.152;8.182;2023-02-08T11:16:32;14.70;;;7.20;;
31770;SDS011;18343;50.152;8.182;2023-02-08T11:19:20;16.00;;;6.50;;
31770;SDS011;18343;50.152;8.182;2023-02-08T11:22:14;11.70;;;6.65;;
31770;SDS011;18343;50.152;8.182;2023-02-08T11:25:03;15.50;;;7.03;;
31770;SDS011;18343;50.152;8.182;2023-02-08T11:27:49;13.98;;;7.30;;
31770;SDS011;18343;50.152;8.182;2023-02-08T11:30:34;13.38;;;7.05;;
31770;SDS011;18343;50.152;8.182;2023-02-08T11:33:19;12.32;;;6.88;;
31770;SDS011;18343;50.152;8.182;2023-02-08T11:36:05;16.23;;;7.65;;
31770;SDS011;18343;50.152;8.182;2023-02-08T11:38:51;12.38;;;7.38;;
31770;SDS011;18343;50.152;8.182;2023-02-08T11:41:41;15.05;;;8.52;;
31770;SDS011;18343;50.152;8.182;2023-02-08T11:44:27;13.88;;;7.07;;
31770;SDS011;18343;50.152;8.182;2023-02-08T11:47:15;12.35;;;6.43;;
31770;SDS011;18343;50.152;8.182;2023-02-08T11:50:07;11.82;;;6.80;;
31770;SDS011;18343;50.152;8.182;2023-02-08T11:53:09;15.60;;;6.55;;
31770;SDS011;18343;50.152;8.182;2023-02-08T11:56:06;11.73;;;6.10;;
31770;SDS011;18343;50.152;8.182;2023-02-08T11:59:02;15.70;;;6.82;;
31770;SDS011;18343;50.152;8.182;2023-02-08T12:02:00;15.10;;;7.40;;
31770;SDS011;18343;50.152;8.182;2023-02-08T12:05:11;12.90;;;6.72;;
31770;SDS011;18343;50.152;8.182;2023-02-08T12:07:59;12.02;;;6.20;;
31770;SDS011;18343;50.152;8.182;2023-02-08T12:11:04;11.35;;;6.07;;
31770;SDS011;18343;50.152;8.182;2023-02-08T12:14:10;13.18;;;6.80;;
31770;SDS011;18343;50.152;8.182;2023-02-08T12:17:27;13.75;;;6.38;;
31770;SDS011;18343;50.152;8.182;2023-02-08T12:20:48;13.05;;;6.78;;
31770;SDS011;18343;50.152;8.182;2023-02-08T12:23:51;13.45;;;7.22;;
31770;SDS011;18343;50.152;8.182;2023-02-08T12:26:42;14.75;;;7.05;;
31770;SDS011;18343;50.152;8.182;2023-02-08T12:29:45;12.05;;;6.80;;
31770;SDS011;18343;50.152;8.182;2023-02-08T12:32:40;10.57;;;6.05;;
31770;SDS011;18343;50.152;8.182;2023-02-08T12:36:17;13.65;;;6.05;;
31770;SDS011;18343;50.152;8.182;2023-02-08T12:39:17;15.32;;;7.43;;
31770;SDS011;18343;50.152;8.182;2023-02-08T12:42:21;17.85;;;7.72;;
31770;SDS011;18343;50.152;8.182;2023-02-08T12:48:39;13.50;;;7.10;;
31770;SDS011;18343;50.152;8.182;2023-02-08T12:52:01;17.33;;;7.35;;
31770;SDS011;18343;50.152;8.182;2023-02-08T12:55:00;15.10;;;7.30;;
31770;SDS011;18343;50.152;8.182;2023-02-08T12:57:54;12.43;;;7.20;;
31770;SDS011;18343;50.152;8.182;2023-02-08T13:00:44;15.40;;;7.85;;
31770;SDS011;18343;50.152;8.182;2023-02-08T13:03:34;11.85;;;6.50;;
31770;SDS011;18343;50.152;8.182;2023-02-08T13:06:30;16.38;;;7.35;;
31770;SDS011;18343;50.152;8.182;2023-02-08T13:09:25;15.15;;;7.47;;
31770;SDS011;18343;50.152;8.182;2023-02-08T13:12:25;15.85;;;7.95;;
31770;SDS011;18343;50.152;8.182;2023-02-08T13:15:14;13.70;;;7.47;;
31770;SDS011;18343;50.152;8.182;2023-02-08T13:18:09;15.50;;;8.18;;
31770;SDS011;18343;50.152;8.182;2023-02-08T13:21:00;15.48;;;7.60;;
31770;SDS011;18343;50.152;8.182;2023-02-08T13:23:49;14.88;;;7.03;;
31770;SDS011;18343;50.152;8.182;2023-02-08T13:26:36;17.05;;;8.38;;
31770;SDS011;18343;50.152;8.182;2023-02-08T13:29:22;14.48;;;7.78;;
31770;SDS011;18343;50.152;8.182;2023-02-08T13:32:09;12.45;;;7.90;;
31770;SDS011;18343;50.152;8.182;2023-02-08T13:35:10;17.45;;;7.63;;
31770;SDS011;18343;50.152;8.182;2023-02-08T13:38:00;14.98;;;6.97;;
31770;SDS011;18343;50.152;8.182;2023-02-08T13:40:47;18.88;;;8.13;;
31770;SDS011;18343;50.152;8.182;2023-02-08T13:43:51;21.60;;;8.00;;
31770;SDS011;18343;50.152;8.182;2023-02-08T13:46:42;15.77;;;7.53;;
31770;SDS011;18343;50.152;8.182;2023-02-08T13:49:44;14.75;;;7.90;;
31770;SDS011;18343;50.152;8.182;2023-02-08T13:52:50;18.30;;;8.70;;
31770;SDS011;18343;50.152;8.182;2023-02-08T13:55:43;19.50;;;8.10;;
31770;SDS011;18343;50.152;8.182;2023-02-08T13:58:57;14.95;;;7.97;;
31770;SDS011;18343;50.152;8.182;2023-02-08T14:02:07;15.55;;;7.85;;
31770;SDS011;18343;50.152;8.182;2023-02-08T14:08:34;14.38;;;7.32;;
31770;SDS011;18343;50.152;8.182;2023-02-08T14:11:30;17.98;;;7.40;;
31770;SDS011;18343;50.152;8.182;2023-02-08T14:14:25;12.73;;;7.78;;
31770;SDS011;18343;50.152;8.182;2023-02-08T14:17:19;15.15;;;8.23;;
31770;SDS011;18343;50.152;8.182;2023-02-08T14:20:15;14.75;;;8.10;;
31770;SDS011;18343;50.152;8.182;2023-02-08T14:23:03;15.80;;;7.53;;
31770;SDS011;18343;50.152;8.182;2023-02-08T14:26:06;14.40;;;7.32;;
31770;SDS011;18343;50.152;8.182;2023-02-08T14:29:01;15.10;;;7.10;;
31770;SDS011;18343;50.152;8.182;2023-02-08T14:31:48;13.90;;;7.15;;
31770;SDS011;18343;50.152;8.182;2023-02-08T14:34:34;15.80;;;7.07;;
31770;SDS011;18343;50.152;8.182;2023-02-08T14:37:41;19.48;;;8.75;;
31770;SDS011;18343;50.152;8.182;2023-02-08T14:40:31;21.55;;;8.25;;
31770;SDS011;18343;50.152;8.182;2023-02-08T14:43:32;13.38;;;8.43;;
31770;SDS011;18343;50.152;8.182;2023-02-08T14:49:26;13.32;;;7.68;;
31770;SDS011;18343;50.152;8.182;2023-02-08T14:52:21;13.70;;;8.18;;
31770;SDS011;18343;50.152;8.182;2023-02-08T14:55:11;17.98;;;8.23;;
31770;SDS011;18343;50.152;8.182;2023-02-08T14:58:00;13.45;;;7.78;;
31770;SDS011;18343;50.152;8.182;2023-02-08T15:00:49;16.52;;;8.48;;
31770;SDS011;18343;50.152;8.182;2023-02-08T15:03:36;16.15;;;9.10;;
31770;SDS011;18343;50.152;8.182;2023-02-08T15:06:37;17.05;;;8.60;;
31770;SDS011;18343;50.152;8.182;2023-02-08T15:09:55;17.38;;;8.95;;
31770;SDS011;18343;50.152;8.182;2023-02-08T15:12:41;17.05;;;8.70;;
31770;SDS011;18343;50.152;8.182;2023-02-08T15:15:30;18.92;;;8.07;;
31770;SDS011;18343;50.152;8.182;2023-02-08T15:18:20;15.00;;;7.55;;
31770;SDS011;18343;50.152;8.182;2023-02-08T15:21:14;19.35;;;8.20;;
31770;SDS011;18343;50.152;8.182;2023-02-08T15:24:02;15.77;;;8.20;;
31770;SDS011;18343;50.152;8.182;2023-02-08T15:32:25;14.52;;;7.72;;
31770;SDS011;18343;50.152;8.182;2023-02-08T15:35:14;15.55;;;7.65;;
31770;SDS011;18343;50.152;8.182;2023-02-08T15:38:03;15.95;;;8.57;;
31770;SDS011;18343;50.152;8.182;2023-02-08T15:40:58;17.65;;;9.48;;
31770;SDS011;18343;50.152;8.182;2023-02-08T15:43:46;19.08;;;9.00;;
31770;SDS011;18343;50.152;8.182;2023-02-08T15:46:30;15.25;;;8.50;;
31770;SDS011;18343;50.152;8.182;2023-02-08T15:49:18;14.88;;;8.45;;
31770;SDS011;18343;50.152;8.182;2023-02-08T15:52:13;18.35;;;9.65;;
31770;SDS011;18343;50.152;8.182;2023-02-08T15:55:01;24.30;;;12.25;;
31770;SDS011;18343;50.152;8.182;2023-02-08T15:57:53;18.98;;;8.90;;
31770;SDS011;18343;50.152;8.182;2023-02-08T16:00:41;14.05;;;7.80;;
31770;SDS011;18343;50.152;8.182;2023-02-08T16:03:28;14.80;;;7.95;;
31770;SDS011;18343;50.152;8.182;2023-02-08T16:06:19;13.93;;;7.32;;
31770;SDS011;18343;50.152;8.182;2023-02-08T16:09:14;13.23;;;7.60;;
31770;SDS011;18343;50.152;8.182;2023-02-08T16:12:03;15.57;;;7.90;;
31770;SDS011;18343;50.152;8.182;2023-02-08T16:14:49;12.57;;;7.35;;
31770;SDS011;18343;50.152;8.182;2023-02-08T16:17:37;13.88;;;7.85;;
31770;SDS011;18343;50.152;8.182;2023-02-08T16:20:27;14.15;;;7.70;;
31770;SDS011;18343;50.152;8.182;2023-02-08T16:23:21;17.17;;;7.88;;
31770;SDS011;18343;50.152;8.182;2023-02-08T16:26:11;23.25;;;11.43;;
31770;SDS011;18343;50.152;8.182;2023-02-08T16:29:04;22.23;;;12.20;;
31770;SDS011;18343;50.152;8.182;2023-02-08T16:32:02;29.60;;;13.68;;
31770;SDS011;18343;50.152;8.182;2023-02-08T16:34:48;21.40;;;11.85;;
31770;SDS011;18343;50.152;8.182;2023-02-08T16:37:33;20.50;;;12.00;;
31770;SDS011;18343;50.152;8.182;2023-02-08T16:43:31;21.15;;;11.27;;
31770;SDS011;18343;50.152;8.182;2023-02-08T16:46:17;26.58;;;11.30;;
31770;SDS011;18343;50.152;8.182;2023-02-08T16:49:07;29.02;;;13.38;;
31770;SDS011;18343;50.152;8.182;2023-02-08T16:51:54;26.13;;;12.80;;
31770;SDS011;18343;50.152;8.182;2023-02-08T16:54:40;22.85;;;12.10;;
31770;SDS011;18343;50.152;8.182;2023-02-08T16:57:36;24.10;;;13.20;;
31770;SDS011;18343;50.152;8.182;2023-02-08T17:00:25;21.65;;;10.65;;
31770;SDS011;18343;50.152;8.182;2023-02-08T17:03:11;26.05;;;11.65;;
31770;SDS011;18343;50.152;8.182;2023-02-08T17:05:56;26.17;;;12.88;;
31770;SDS011;18343;50.152;8.182;2023-02-08T17:08:42;24.02;;;12.77;;
31770;SDS011;18343;50.152;8.182;2023-02-08T17:11:27;22.70;;;11.50;;